Time;durP1;ratioP1;P1;durP2;ratioP2;P2;SDS_P1;SDS_P2;PMS_P1;PMS_P2;Temp;Humidity;BMP_temperature;BMP_pressure;BME280_temperature;BME280_humidity;BME280_pressure;Samples;Min_cycle;Max_cycle;Signal;HPM_P1;HPM_P2
2022/06/05 00:00:57;;;;;;;2.57;0.93;;;14.40;63.50;;;;;;4946311;29;20179;-73
2022/06/05 00:03:54;;;;;;;2.57;2.10;;;14.40;63.40;;;;;;4955177;28;20191;-72
2022/06/05 00:06:38;;;;;;;4.90;2.47;;;14.60;63.20;;;;;;4956579;29;20262;-76
2022/06/05 00:09:20;;;;;;;3.17;1.70;;;14.60;62.60;;;;;;4956016;29;20187;-75
2022/06/05 00:11:58;;;;;;;1.67;1.40;;;14.60;62.00;;;;;;4954198;28;20239;-80
2022/06/05 00:14:25;;;;;;;2.20;0.97;;;14.60;62.10;;;;;;4955659;28;20187;-71
2022/06/05 00:16:53;;;;;;;1.30;0.90;;;14.50;62.20;;;;;;4956648;29;20262;-72
2022/06/05 00:19:21;;;;;;;1.73;1.00;;;14.70;62.40;;;;;;4955471;28;20180;-77
2022/06/05 00:21:49;;;;;;;1.10;0.90;;;14.80;62.30;;;;;;4956636;28;20194;-77
2022/06/05 00:24:17;;;;;;;5.93;3.97;;;14.70;61.60;;;;;;4955720;28;20193;-73
2022/06/05 00:26:58;;;;;;;2.50;2.30;;;14.80;61.40;;;;;;4956352;29;20227;-77
2022/06/05 00:29:42;;;;;;;1.10;1.00;;;14.80;61.10;;;;;;4952632;28;20261;-75
2022/06/05 00:32:37;;;;;;;1.40;0.90;;;14.80;61.00;;;;;;4953720;28;20190;-73
2022/06/05 00:35:11;;;;;;;1.80;1.40;;;14.90;60.90;;;;;;4956455;28;20187;-73
2022/06/05 00:38:12;;;;;;;2.47;1.80;;;15.00;60.60;;;;;;4955926;29;20190;-74
2022/06/05 00:40:57;;;;;;;1.43;1.00;;;15.20;60.60;;;;;;4956097;28;20184;-73
2022/06/05 00:43:25;;;;;;;3.17;2.37;;;15.30;59.90;;;;;;4954868;29;20740;-75
2022/06/05 00:45:55;;;;;;;1.53;1.43;;;15.50;60.20;;;;;;4955313;29;20322;-73
2022/06/05 00:48:23;;;;;;;2.20;1.10;;;15.60;59.00;;;;;;4955181;28;20207;-74
2022/06/05 00:50:50;;;;;;;3.03;1.77;;;15.60;59.90;;;;;;4937642;29;20746;-73
2022/06/05 00:53:18;;;;;;;2.73;1.30;;;15.60;59.70;;;;;;4956056;28;20190;-72
2022/06/05 00:55:48;;;;;;;2.97;1.43;;;15.60;60.10;;;;;;4954248;28;20200;-72
2022/06/05 00:58:17;;;;;;;2.17;1.50;;;15.70;58.00;;;;;;4951932;29;20215;-72
2022/06/05 01:00:49;;;;;;;2.43;1.10;;;16.00;58.00;;;;;;4945269;29;20183;-73
2022/06/05 01:03:17;;;;;;;2.70;2.10;;;16.20;56.50;;;;;;4955866;29;20189;-73
2022/06/05 01:05:44;;;;;;;2.97;1.10;;;16.60;56.30;;;;;;4955201;28;20179;-74
2022/06/05 01:08:13;;;;;;;2.07;1.17;;;16.90;55.00;;;;;;4952136;29;20244;-72
2022/06/05 01:11:06;;;;;;;2.20;1.10;;;16.90;54.30;;;;;;4947501;29;20923;-74
2022/06/05 01:13:51;;;;;;;1.17;0.90;;;16.80;54.70;;;;;;4955541;29;20185;-77
2022/06/05 01:16:24;;;;;;;1.33;1.07;;;16.80;53.60;;;;;;4951586;29;20269;-76
2022/06/05 01:18:55;;;;;;;1.73;1.20;;;16.90;53.80;;;;;;4955501;28;20164;-74
2022/06/05 01:21:56;;;;;;;1.23;0.93;;;16.90;54.10;;;;;;4955033;28;20186;-75
2022/06/05 01:25:07;;;;;;;1.70;0.97;;;17.30;53.50;;;;;;4937610;29;20650;-75
2022/06/05 01:27:39;;;;;;;1.57;0.80;;;17.30;52.20;;;;;;4934690;28;20715;-75
2022/06/05 01:30:18;;;;;;;1.80;1.40;;;17.20;51.80;;;;;;4938006;29;20708;-72
2022/06/05 01:32:51;;;;;;;1.13;0.90;;;17.20;52.50;;;;;;4955315;29;20189;-72
2022/06/05 01:35:24;;;;;;;2.20;1.20;;;17.20;52.50;;;;;;4955015;29;20213;-71
2022/06/05 01:38:03;;;;;;;3.27;1.07;;;17.30;51.90;;;;;;4954983;28;20190;-74
2022/06/05 01:40:45;;;;;;;2.30;0.80;;;17.10;51.90;;;;;;4955181;28;20224;-72
2022/06/05 01:43:18;;;;;;;1.20;0.87;;;17.30;51.40;;;;;;4955231;28;20182;-76
2022/06/05 01:45:50;;;;;;;1.70;0.93;;;17.30;51.30;;;;;;4937721;28;20182;-74
2022/06/05 01:48:23;;;;;;;1.53;1.00;;;17.50;51.40;;;;;;4954895;29;20305;-72
2022/06/05 01:50:56;;;;;;;1.20;0.80;;;17.60;50.60;;;;;;4954939;28;20245;-72
2022/06/05 01:53:27;;;;;;;1.13;0.90;;;17.60;50.10;;;;;;4952161;29;20205;-74
2022/06/05 01:56:04;;;;;;;2.93;1.10;;;17.90;49.10;;;;;;4945918;28;20180;-77
2022/06/05 01:58:54;;;;;;;1.57;1.03;;;17.80;49.60;;;;;;4941413;29;20193;-74
2022/06/05 02:01:33;;;;;;;2.80;0.87;;;17.80;50.70;;;;;;4953708;28;20224;-74
2022/06/05 02:04:46;;;;;;;0.80;0.80;;;17.60;50.40;;;;;;4953848;28;20437;-74
2022/06/05 02:07:20;;;;;;;0.77;0.77;;;17.60;50.00;;;;;;4915796;28;20338;-71
2022/06/05 02:09:54;;;;;;;4.47;1.00;;;17.70;49.60;;;;;;4957772;28;20285;-75
2022/06/05 02:12:23;;;;;;;1.23;1.00;;;17.60;49.40;;;;;;4954622;29;20185;-75
2022/06/05 02:14:50;;;;;;;2.07;0.83;;;17.80;49.80;;;;;;4954019;28;20178;-78
2022/06/05 02:17:18;;;;;;;2.40;0.77;;;17.80;48.80;;;;;;4954176;29;20735;-71
2022/06/05 02:19:46;;;;;;;0.80;0.73;;;17.70;49.40;;;;;;4954381;29;20186;-75
2022/06/05 02:22:30;;;;;;;1.47;1.37;;;17.60;48.90;;;;;;4954329;28;20180;-77
2022/06/05 02:24:58;;;;;;;2.90;1.57;;;17.40;50.40;;;;;;4954491;28;20707;-72
2022/06/05 02:27:26;;;;;;;2.60;2.00;;;17.30;51.20;;;;;;4954024;28;20752;-75
2022/06/05 02:29:56;;;;;;;1.30;0.90;;;17.20;51.40;;;;;;4938256;29;20189;-84
2022/06/05 02:32:58;;;;;;;2.13;1.97;;;17.30;50.70;;;;;;4946221;29;20266;-79
2022/06/05 02:35:37;;;;;;;2.97;1.43;;;17.60;49.70;;;;;;4858058;29;20587;-72
2022/06/05 02:38:26;;;;;;;2.43;1.83;;;17.50;49.60;;;;;;4942945;28;20222;-83
2022/06/05 02:41:13;;;;;;;1.17;0.80;;;17.70;49.20;;;;;;4954369;28;20182;-73
2022/06/05 02:44:28;;;;;;;2.47;1.93;;;17.90;48.60;;;;;;4953910;29;20175;-76
2022/06/05 02:46:41;;;;;;;1.30;1.20;;;17.90;48.60;;;;;;4953681;28;20566;-74
2022/06/05 02:49:27;;;;;;;2.53;1.10;;;18.00;47.70;;;;;;4953489;29;20295;-73
2022/06/05 02:51:59;;;;;;;1.57;1.27;;;18.20;46.90;;;;;;4952149;29;20668;-79
2022/06/05 02:54:27;;;;;;;3.73;0.70;;;18.20;46.10;;;;;;4935698;29;20190;-75
2022/06/05 02:56:55;;;;;;;1.50;0.80;;;17.90;47.10;;;;;;4953425;28;20186;-77
2022/06/05 02:59:24;;;;;;;0.70;0.67;;;18.20;47.10;;;;;;4954131;29;20182;-74
2022/06/05 03:04:37;;;;;;;2.97;0.90;;;17.80;47.40;;;;;;4953940;28;20190;-76
2022/06/05 03:07:05;;;;;;;1.53;0.70;;;17.80;47.50;;;;;;4954061;29;20222;-77
2022/06/05 03:09:33;;;;;;;1.97;0.80;;;17.70;47.40;;;;;;4954343;29;20241;-76
2022/06/05 03:12:01;;;;;;;1.13;0.80;;;17.80;47.40;;;;;;4954079;29;20182;-74
2022/06/05 03:14:29;;;;;;;0.70;0.60;;;18.00;48.10;;;;;;4955054;28;20178;-73
2022/06/05 03:16:56;;;;;;;1.90;0.80;;;17.80;47.80;;;;;;4957571;28;20255;-75
2022/06/05 03:19:23;;;;;;;1.47;0.80;;;17.60;48.20;;;;;;4957494;28;20186;-75
2022/06/05 03:21:51;;;;;;;1.00;0.90;;;17.60;48.50;;;;;;4940493;29;20183;-73
2022/06/05 03:24:19;;;;;;;1.07;0.80;;;17.70;48.40;;;;;;4957283;28;20279;-74
2022/06/05 03:26:46;;;;;;;1.60;0.90;;;17.70;48.00;;;;;;4957386;28;20238;-72
2022/06/05 03:29:23;;;;;;;1.20;0.80;;;17.80;47.80;;;;;;4955311;28;20175;-77
2022/06/05 03:31:52;;;;;;;1.13;0.97;;;17.50;48.60;;;;;;4957600;28;20178;-75
2022/06/05 03:34:19;;;;;;;2.40;0.77;;;17.40;48.90;;;;;;4957248;28;20559;-74
2022/06/05 03:36:48;;;;;;;0.87;0.70;;;17.30;49.60;;;;;;4957683;29;20627;-75
2022/06/05 03:39:15;;;;;;;1.27;0.83;;;17.20;48.80;;;;;;4957542;28;20647;-74
2022/06/05 03:41:43;;;;;;;0.70;0.70;;;17.10;49.70;;;;;;4957068;29;20185;-75
2022/06/05 03:44:12;;;;;;;1.23;0.90;;;17.10;49.70;;;;;;4954731;28;20190;-74
2022/06/05 03:46:40;;;;;;;0.80;0.80;;;17.10;50.10;;;;;;4956310;28;20245;-73
2022/06/05 03:49:10;;;;;;;1.47;0.90;;;17.00;49.70;;;;;;4951390;28;20598;-76
2022/06/05 03:51:38;;;;;;;1.13;0.80;;;17.00;49.80;;;;;;4954585;29;20184;-74
2022/06/05 03:54:05;;;;;;;1.30;0.93;;;17.00;49.80;;;;;;4949609;28;20201;-73
2022/06/05 03:56:33;;;;;;;1.30;1.00;;;17.00;49.90;;;;;;4947294;29;20217;-75
2022/06/05 03:59:00;;;;;;;4.10;0.70;;;17.10;50.30;;;;;;4944825;28;20186;-72
2022/06/05 04:01:28;;;;;;;0.90;0.70;;;17.30;49.40;;;;;;4950248;28;20194;-73
2022/06/05 04:03:56;;;;;;;0.70;0.70;;;17.20;49.20;;;;;;4953237;29;20178;-76
2022/06/05 04:06:30;;;;;;;1.13;0.80;;;17.10;49.50;;;;;;4952812;29;20722;-73
2022/06/05 04:09:04;;;;;;;1.77;0.70;;;17.00;49.60;;;;;;4951746;28;20187;-73
2022/06/05 04:11:34;;;;;;;1.20;0.70;;;17.00;49.30;;;;;;4952827;28;20183;-74
2022/06/05 04:14:01;;;;;;;0.83;0.77;;;17.00;49.80;;;;;;4953662;28;20344;-75
2022/06/05 04:16:31;;;;;;;0.70;0.70;;;17.10;50.20;;;;;;4950902;29;20182;-74
2022/06/05 04:19:00;;;;;;;3.40;0.70;;;17.00;50.30;;;;;;4952101;28;20187;-73
2022/06/05 04:21:31;;;;;;;1.67;0.90;;;16.90;50.10;;;;;;4946125;29;20187;-73
2022/06/05 04:23:59;;;;;;;1.17;0.80;;;16.90;50.50;;;;;;4945287;29;20189;-71
2022/06/05 04:26:30;;;;;;;1.27;0.80;;;16.90;50.50;;;;;;4946403;28;20300;-72
2022/06/05 04:28:57;;;;;;;1.77;0.87;;;16.90;51.30;;;;;;4946526;28;20201;-71
2022/06/05 04:31:35;;;;;;;1.20;1.10;;;17.00;51.20;;;;;;4951004;28;20256;-76
2022/06/05 04:34:11;;;;;;;1.10;0.80;;;17.00;51.10;;;;;;4948219;28;20586;-70
2022/06/05 04:36:38;;;;;;;0.63;0.63;;;17.00;51.60;;;;;;4950902;29;20186;-71
2022/06/05 04:39:06;;;;;;;1.77;0.70;;;16.90;51.10;;;;;;4952152;29;20177;-73
2022/06/05 04:41:34;;;;;;;1.87;1.00;;;17.00;51.20;;;;;;4952779;28;20271;-72
2022/06/05 04:44:02;;;;;;;1.13;0.80;;;16.90;51.00;;;;;;4954972;28;20183;-78
2022/06/05 04:46:30;;;;;;;1.17;0.73;;;16.90;50.70;;;;;;4938206;29;20238;-71
2022/06/05 04:48:58;;;;;;;0.60;0.60;;;16.80;50.70;;;;;;4953629;28;20641;-71
2022/06/05 04:51:26;;;;;;;1.33;0.80;;;16.80;51.50;;;;;;4950395;29;20198;-72
2022/06/05 04:53:56;;;;;;;1.20;0.70;;;16.80;51.50;;;;;;4943643;29;20181;-71
2022/06/05 04:56:26;;;;;;;1.53;0.90;;;16.70;50.90;;;;;;4941670;29;20291;-77
2022/06/05 04:58:57;;;;;;;0.70;0.70;;;16.70;50.20;;;;;;4942704;29;20206;-73
2022/06/05 05:01:35;;;;;;;1.10;0.70;;;16.70;50.70;;;;;;4946948;28;20253;-73
2022/06/05 05:04:10;;;;;;;1.93;0.80;;;16.70;51.10;;;;;;4948021;28;21450;-72
2022/06/05 05:06:39;;;;;;;1.63;0.80;;;16.60;51.80;;;;;;4932439;29;20224;-74
2022/06/05 05:09:07;;;;;;;1.77;1.20;;;16.60;52.30;;;;;;4951441;28;20659;-71
2022/06/05 05:11:35;;;;;;;1.20;0.90;;;16.50;51.80;;;;;;4949260;29;20243;-74
2022/06/05 05:14:03;;;;;;;1.77;0.80;;;16.40;51.70;;;;;;4945069;28;20253;-73
2022/06/05 05:16:32;;;;;;;1.87;0.90;;;16.30;51.80;;;;;;4946513;28;20197;-76
2022/06/05 05:18:59;;;;;;;0.90;0.90;;;16.30;52.30;;;;;;4951718;28;20196;-72
2022/06/05 05:21:27;;;;;;;1.60;0.80;;;16.20;52.00;;;;;;4946844;28;20555;-71
2022/06/05 05:23:55;;;;;;;2.53;1.07;;;16.20;52.20;;;;;;4949367;28;20187;-72
2022/06/05 05:26:27;;;;;;;1.10;1.00;;;16.20;53.00;;;;;;4950759;28;20229;-72
2022/06/05 05:28:55;;;;;;;1.23;1.00;;;16.10;52.90;;;;;;4946690;29;20197;-72
2022/06/05 05:31:29;;;;;;;1.73;0.90;;;16.10;53.20;;;;;;4948658;29;20279;-72
2022/06/05 05:33:57;;;;;;;0.70;0.70;;;16.10;53.30;;;;;;4951180;28;20266;-75
2022/06/05 05:36:25;;;;;;;0.83;0.80;;;16.00;52.80;;;;;;4943910;29;20274;-73
2022/06/05 05:44:25;;;;;;;1.00;0.90;;;16.00;53.50;;;;;;4951268;28;20224;-76
2022/06/05 05:46:53;;;;;;;1.10;0.80;;;15.90;52.40;;;;;;4950807;29;20851;-78
2022/06/05 05:49:20;;;;;;;0.90;0.80;;;15.90;52.90;;;;;;4954655;28;20266;-76
2022/06/05 05:51:48;;;;;;;0.90;0.80;;;15.90;53.00;;;;;;4954210;28;20210;-73
2022/06/05 05:54:15;;;;;;;2.17;1.00;;;15.80;52.90;;;;;;4954759;29;20598;-75
2022/06/05 05:56:43;;;;;;;1.13;0.90;;;15.80;53.70;;;;;;4954264;28;20195;-75
2022/06/05 05:59:10;;;;;;;2.17;1.17;;;15.80;53.70;;;;;;4954219;28;20223;-74
2022/06/05 06:01:37;;;;;;;1.77;0.93;;;15.80;53.30;;;;;;4953931;29;20278;-77
2022/06/05 06:04:05;;;;;;;1.57;1.00;;;15.80;53.50;;;;;;4954686;29;20199;-74
2022/06/05 06:06:36;;;;;;;1.97;1.10;;;15.70;53.80;;;;;;4953011;28;20222;-75
2022/06/05 06:09:05;;;;;;;2.37;0.77;;;15.70;53.70;;;;;;4952408;29;20199;-74
2022/06/05 06:11:32;;;;;;;1.83;0.97;;;15.70;53.80;;;;;;4954669;28;20205;-74
2022/06/05 06:14:00;;;;;;;1.43;0.87;;;15.70;54.00;;;;;;4954250;28;20539;-74
2022/06/05 06:16:28;;;;;;;1.53;0.77;;;15.70;53.80;;;;;;4954224;28;20223;-75
2022/06/05 06:18:56;;;;;;;0.80;0.80;;;15.70;53.90;;;;;;4954063;28;20594;-75
2022/06/05 06:21:24;;;;;;;1.40;0.80;;;15.70;53.90;;;;;;4954516;29;20191;-74
2022/06/05 06:23:52;;;;;;;2.50;1.10;;;15.60;54.30;;;;;;4953815;28;20192;-75
2022/06/05 06:26:20;;;;;;;0.80;0.80;;;15.50;54.10;;;;;;4952614;28;20228;-75
2022/06/05 06:28:47;;;;;;;1.67;1.00;;;15.50;54.40;;;;;;4954288;28;20266;-73
2022/06/05 06:31:16;;;;;;;2.13;0.90;;;15.50;54.20;;;;;;4953199;28;20697;-76
2022/06/05 06:33:48;;;;;;;2.30;1.03;;;15.50;54.10;;;;;;4954012;29;20191;-75
2022/06/05 06:36:17;;;;;;;1.67;0.87;;;15.50;53.60;;;;;;4954349;28;20172;-74
2022/06/05 06:38:45;;;;;;;0.83;0.77;;;15.40;54.00;;;;;;4949938;28;20176;-76
2022/06/05 06:41:15;;;;;;;0.80;0.80;;;15.30;54.10;;;;;;4953998;28;20250;-73
2022/06/05 06:43:45;;;;;;;1.43;0.87;;;15.30;54.00;;;;;;4954555;28;20180;-73
2022/06/05 06:46:14;;;;;;;1.27;0.90;;;15.30;54.50;;;;;;4953391;28;20189;-75
2022/06/05 06:48:42;;;;;;;2.80;1.10;;;15.20;54.50;;;;;;4949411;28;20227;-74
2022/06/05 06:51:10;;;;;;;1.40;1.27;;;15.20;55.10;;;;;;4958053;28;20323;-75
2022/06/05 06:53:39;;;;;;;2.23;1.30;;;15.20;55.50;;;;;;4957826;28;20546;-73
2022/06/05 06:56:13;;;;;;;1.50;1.40;;;15.10;55.40;;;;;;4958083;29;20512;-74
2022/06/05 06:58:42;;;;;;;3.07;1.33;;;15.10;55.20;;;;;;4957063;28;20318;-75
2022/06/05 07:01:10;;;;;;;2.00;1.30;;;15.00;55.90;;;;;;4957401;29;20191;-74
2022/06/05 07:03:38;;;;;;;3.40;1.33;;;15.00;55.90;;;;;;4961601;28;20187;-73
2022/06/05 07:06:09;;;;;;;1.40;1.10;;;14.90;56.00;;;;;;4940490;29;20195;-75
2022/06/05 07:08:37;;;;;;;2.10;1.20;;;14.90;56.10;;;;;;4951282;28;20208;-77
2022/06/05 07:11:09;;;;;;;1.90;1.60;;;14.90;55.40;;;;;;4934008;29;20653;-76
2022/06/05 07:13:37;;;;;;;1.93;1.60;;;14.90;56.00;;;;;;4957475;28;20190;-74
2022/06/05 07:16:07;;;;;;;1.63;1.10;;;14.90;56.50;;;;;;4957266;28;20184;-75
2022/06/05 07:18:34;;;;;;;1.50;1.20;;;14.80;56.10;;;;;;4940096;29;20661;-73
2022/06/05 07:21:15;;;;;;;1.20;1.10;;;14.80;56.50;;;;;;4957156;28;20199;-73
2022/06/05 07:23:43;;;;;;;3.77;2.07;;;14.80;56.70;;;;;;4957391;29;20270;-75
2022/06/05 07:26:12;;;;;;;1.83;1.13;;;14.80;56.40;;;;;;4954473;29;20327;-73
2022/06/05 07:28:39;;;;;;;1.67;1.10;;;14.80;56.70;;;;;;4949180;29;20215;-72
2022/06/05 07:31:08;;;;;;;1.57;1.17;;;14.80;56.70;;;;;;4956478;28;20243;-73
2022/06/05 07:33:36;;;;;;;1.37;1.27;;;14.80;56.90;;;;;;4954118;28;20267;-75
2022/06/05 07:36:07;;;;;;;1.80;1.23;;;14.80;57.10;;;;;;4950533;28;20678;-74
2022/06/05 07:38:36;;;;;;;1.37;1.10;;;14.70;57.40;;;;;;4967179;28;20175;-73
2022/06/05 07:41:14;;;;;;;1.53;1.10;;;14.70;57.20;;;;;;4959934;28;20190;-73
2022/06/05 07:43:42;;;;;;;2.93;1.40;;;14.70;57.40;;;;;;4957052;28;20281;-73
2022/06/05 07:46:09;;;;;;;2.80;1.80;;;14.60;57.50;;;;;;4955748;28;20187;-74
2022/06/05 07:48:37;;;;;;;4.90;1.40;;;14.60;57.80;;;;;;4952202;28;20691;-73
2022/06/05 07:56:41;;;;;;;3.90;1.70;;;14.60;57.50;;;;;;4956078;28;20456;-73
2022/06/05 07:59:08;;;;;;;9.07;7.37;;;14.50;57.80;;;;;;4947788;28;20618;-71
2022/06/05 08:01:37;;;;;;;4.87;3.53;;;14.50;58.10;;;;;;4951735;28;20191;-72
2022/06/05 08:04:05;;;;;;;1.70;1.60;;;14.40;58.20;;;;;;4956851;28;20187;-73
2022/06/05 08:06:34;;;;;;;4.40;1.67;;;14.30;58.10;;;;;;4956321;28;20195;-72
2022/06/05 08:09:06;;;;;;;1.70;1.40;;;14.30;57.90;;;;;;4955010;29;20306;-72
2022/06/05 08:11:34;;;;;;;1.43;1.27;;;14.30;58.20;;;;;;4951807;29;20667;-72
2022/06/05 08:14:03;;;;;;;1.50;1.40;;;14.30;58.20;;;;;;4955746;29;20230;-73
2022/06/05 08:16:30;;;;;;;2.23;1.60;;;14.30;58.10;;;;;;4955627;28;20190;-74
2022/06/05 08:18:57;;;;;;;2.00;1.80;;;14.30;58.50;;;;;;4955386;28;20195;-72
2022/06/05 08:21:26;;;;;;;2.70;1.80;;;14.20;58.30;;;;;;4951779;28;20182;-73
2022/06/05 08:23:54;;;;;;;2.27;1.40;;;14.20;58.60;;;;;;4956316;29;20187;-71
2022/06/05 08:26:21;;;;;;;4.53;2.60;;;14.20;58.30;;;;;;4955462;28;20577;-75
2022/06/05 08:28:50;;;;;;;3.73;2.60;;;14.20;58.50;;;;;;4949529;28;20222;-74
2022/06/05 08:31:17;;;;;;;2.57;1.50;;;14.10;59.00;;;;;;4962972;28;20183;-73
2022/06/05 08:33:45;;;;;;;2.70;1.50;;;14.10;58.70;;;;;;4954960;28;20265;-73
2022/06/05 08:36:12;;;;;;;2.43;1.47;;;14.10;58.50;;;;;;4955559;28;20191;-73
2022/06/05 08:41:28;;;;;;;1.90;1.50;;;14.10;58.50;;;;;;4956404;28;20186;-76
2022/06/05 08:43:58;;;;;;;1.97;1.30;;;14.00;58.30;;;;;;4954976;28;20681;-72
2022/06/05 08:46:32;;;;;;;2.27;1.50;;;14.00;58.60;;;;;;4954824;28;20222;-72
2022/06/05 08:49:09;;;;;;;3.03;1.70;;;13.90;58.40;;;;;;4955393;28;20191;-73
2022/06/05 08:52:03;;;;;;;2.20;1.70;;;13.90;58.80;;;;;;4956000;28;20230;-72
2022/06/05 08:55:00;;;;;;;3.40;1.50;;;13.90;58.90;;;;;;4954010;28;20186;-73
2022/06/05 08:58:11;;;;;;;1.40;1.30;;;13.80;59.00;;;;;;4954701;28;20199;-71
2022/06/05 09:00:47;;;;;;;2.20;1.50;;;13.80;59.30;;;;;;4905266;29;20200;-72
2022/06/05 09:03:33;;;;;;;1.80;1.63;;;13.80;58.80;;;;;;4955233;28;20175;-75
2022/06/05 09:06:18;;;;;;;2.80;1.60;;;13.80;59.20;;;;;;4953384;28;20179;-75
2022/06/05 09:08:51;;;;;;;2.83;1.40;;;13.80;59.10;;;;;;4951140;28;20306;-73
2022/06/05 09:11:45;;;;;;;5.50;1.60;;;13.80;59.20;;;;;;4966495;28;20179;-73
2022/06/05 09:14:30;;;;;;;2.63;1.73;;;13.70;59.20;;;;;;4955033;28;20191;-73
2022/06/05 09:17:02;;;;;;;1.73;1.40;;;13.70;59.40;;;;;;4955993;28;20261;-72
2022/06/05 09:19:31;;;;;;;4.47;1.70;;;13.60;59.50;;;;;;4963041;28;20179;-74
2022/06/05 09:22:04;;;;;;;1.83;1.67;;;13.60;59.90;;;;;;4955555;28;20242;-73
2022/06/05 09:24:58;;;;;;;2.63;1.33;;;13.50;59.90;;;;;;4954672;28;20298;-75
2022/06/05 09:27:46;;;;;;;2.27;1.67;;;13.50;60.00;;;;;;4950152;28;20234;-73
2022/06/05 09:30:29;;;;;;;4.17;1.53;;;13.50;59.90;;;;;;4954627;28;20278;-73
2022/06/05 09:33:20;;;;;;;1.70;1.60;;;13.50;60.00;;;;;;4954754;28;20181;-76
2022/06/05 09:36:20;;;;;;;2.53;1.60;;;13.50;60.10;;;;;;4955483;29;20179;-73
2022/06/05 09:39:13;;;;;;;3.13;1.67;;;13.50;60.20;;;;;;4940279;29;20251;-74
2022/06/05 09:42:09;;;;;;;2.80;2.27;;;13.40;60.30;;;;;;4952262;29;20194;-74
2022/06/05 09:44:49;;;;;;;3.97;1.83;;;13.30;60.80;;;;;;4939994;29;20194;-73
2022/06/05 09:47:36;;;;;;;2.10;1.90;;;13.30;60.90;;;;;;4954734;28;20348;-76
2022/06/05 09:50:25;;;;;;;5.70;4.67;;;13.30;61.20;;;;;;4952785;29;20194;-75
2022/06/05 09:52:52;;;;;;;3.23;2.57;;;13.30;61.40;;;;;;4955100;28;20195;-73
2022/06/05 09:55:40;;;;;;;2.20;1.80;;;13.30;61.90;;;;;;4954629;28;20199;-74
2022/06/05 09:58:27;;;;;;;2.17;1.27;;;13.20;62.30;;;;;;4951091;28;20233;-73
2022/06/05 10:00:57;;;;;;;2.20;1.20;;;13.30;62.40;;;;;;4953918;29;20660;-73
2022/06/05 10:03:39;;;;;;;2.17;1.80;;;13.30;62.30;;;;;;4954148;28;20641;-77
2022/06/05 10:06:17;;;;;;;2.07;1.50;;;13.20;62.60;;;;;;4954348;28;20908;-76
2022/06/05 10:09:12;;;;;;;2.07;1.40;;;13.20;62.70;;;;;;4953951;29;20211;-74
2022/06/05 10:11:59;;;;;;;2.47;1.40;;;13.20;63.00;;;;;;4950013;28;20197;-74
2022/06/05 10:14:45;;;;;;;1.33;1.10;;;13.20;63.10;;;;;;4954842;28;20198;-73
2022/06/05 10:18:01;;;;;;;2.33;1.77;;;13.20;62.80;;;;;;4954014;28;20334;-73
2022/06/05 10:20:47;;;;;;;1.97;1.60;;;13.20;63.10;;;;;;4921597;28;20273;-76
2022/06/05 10:23:37;;;;;;;3.70;1.70;;;13.10;63.60;;;;;;4951449;28;20184;-73
2022/06/05 10:26:30;;;;;;;2.23;1.60;;;13.10;63.50;;;;;;4943804;29;20300;-75
2022/06/05 10:29:21;;;;;;;4.30;1.90;;;13.00;63.80;;;;;;4943954;29;20217;-75
2022/06/05 10:31:53;;;;;;;1.77;1.40;;;13.00;64.00;;;;;;4951810;28;20183;-72
2022/06/05 10:34:36;;;;;;;1.80;1.43;;;13.00;64.00;;;;;;4954208;28;20191;-76
2022/06/05 10:37:24;;;;;;;1.80;1.10;;;12.90;64.20;;;;;;4950937;28;20186;-72
2022/06/05 10:40:12;;;;;;;1.50;1.30;;;12.80;64.60;;;;;;4947344;29;20203;-75
2022/06/05 10:43:10;;;;;;;1.97;1.27;;;12.90;64.40;;;;;;4953454;28;20191;-75
2022/06/05 10:45:56;;;;;;;1.60;1.23;;;12.80;64.80;;;;;;4953856;28;20553;-74
2022/06/05 10:48:41;;;;;;;2.20;0.90;;;12.80;64.60;;;;;;4948003;28;20711;-73
2022/06/05 10:51:21;;;;;;;2.03;1.60;;;12.80;64.40;;;;;;4954350;28;20191;-75
2022/06/05 10:54:07;;;;;;;1.80;1.30;;;12.80;64.60;;;;;;4950912;28;20187;-72
2022/06/05 10:56:58;;;;;;;2.60;1.30;;;12.80;64.60;;;;;;4953787;28;20606;-73
2022/06/05 10:59:40;;;;;;;1.10;1.00;;;12.80;64.70;;;;;;4946642;29;20650;-72
2022/06/05 11:02:41;;;;;;;1.73;1.10;;;12.80;64.60;;;;;;4941258;28;20635;-72
2022/06/05 11:05:39;;;;;;;2.13;1.17;;;12.80;64.90;;;;;;4952874;29;20187;-72
2022/06/05 11:08:29;;;;;;;2.50;1.40;;;12.70;64.70;;;;;;4950958;28;20207;-74
2022/06/05 11:14:15;;;;;;;2.33;1.23;;;12.70;64.60;;;;;;4941816;29;20746;-73
2022/06/05 11:17:01;;;;;;;1.10;1.00;;;12.70;64.60;;;;;;4953644;28;20183;-74
2022/06/05 11:19:34;;;;;;;1.10;1.00;;;12.80;64.30;;;;;;4944513;29;20283;-73
2022/06/05 11:22:17;;;;;;;1.57;1.47;;;12.80;64.10;;;;;;4936777;29;20218;-72
2022/06/05 11:24:48;;;;;;;5.23;1.80;;;12.80;64.20;;;;;;4953956;28;20182;-73
2022/06/05 11:27:15;;;;;;;1.30;1.10;;;12.80;64.30;;;;;;4952483;29;20219;-74
2022/06/05 11:29:56;;;;;;;1.37;1.23;;;12.70;64.60;;;;;;4948923;28;20588;-74
2022/06/05 11:32:42;;;;;;;1.83;1.17;;;12.70;64.70;;;;;;4951930;28;20543;-75
2022/06/05 11:35:24;;;;;;;1.33;1.20;;;12.60;64.80;;;;;;4954533;28;20516;-75
2022/06/05 11:37:57;;;;;;;1.53;1.27;;;12.60;64.90;;;;;;4955504;28;20229;-73
2022/06/05 11:40:33;;;;;;;1.40;1.30;;;12.50;64.80;;;;;;4955684;28;20218;-72
2022/06/05 11:43:19;;;;;;;1.40;1.10;;;12.50;65.00;;;;;;4955841;29;20187;-72
2022/06/05 11:45:52;;;;;;;1.50;1.20;;;12.50;64.80;;;;;;4955004;28;20608;-74
2022/06/05 11:48:19;;;;;;;2.60;0.90;;;12.50;65.00;;;;;;4955971;29;20215;-74
2022/06/05 11:51:19;;;;;;;2.17;1.07;;;12.50;65.10;;;;;;4948031;28;20540;-76
2022/06/05 11:54:25;;;;;;;2.87;1.10;;;12.40;65.30;;;;;;4955658;29;20190;-74
2022/06/05 11:57:07;;;;;;;1.70;1.03;;;12.30;65.40;;;;;;4954794;29;20225;-76
2022/06/05 11:59:49;;;;;;;1.13;1.00;;;12.30;65.50;;;;;;4956644;29;20247;-74
2022/06/05 12:02:40;;;;;;;1.37;1.13;;;12.30;65.40;;;;;;4956021;29;20190;-74
2022/06/05 12:05:31;;;;;;;1.23;1.10;;;12.20;65.70;;;;;;4905851;28;20246;-75
2022/06/05 12:08:16;;;;;;;3.90;1.00;;;12.30;65.50;;;;;;4955449;28;20696;-74
2022/06/05 12:11:20;;;;;;;1.17;1.07;;;12.20;65.80;;;;;;4955513;28;20261;-73
2022/06/05 12:13:47;;;;;;;1.10;1.00;;;12.20;65.60;;;;;;4955782;28;20546;-73
2022/06/05 12:16:29;;;;;;;3.00;1.20;;;12.20;65.90;;;;;;4956021;28;20197;-73
2022/06/05 12:19:12;;;;;;;1.20;1.10;;;12.20;66.10;;;;;;4955984;28;20223;-74
2022/06/05 12:22:17;;;;;;;1.07;0.93;;;12.20;66.20;;;;;;4954669;29;20600;-72
2022/06/05 12:25:07;;;;;;;1.20;1.10;;;12.10;66.50;;;;;;4937534;29;20214;-75
2022/06/05 12:28:08;;;;;;;3.00;1.07;;;12.10;66.60;;;;;;4954105;29;20245;-74
2022/06/05 12:30:52;;;;;;;1.50;1.40;;;12.00;67.00;;;;;;4955900;28;20535;-73
2022/06/05 12:33:51;;;;;;;1.63;1.00;;;12.00;67.00;;;;;;4955999;28;20232;-72
2022/06/05 12:36:40;;;;;;;3.27;1.03;;;12.10;66.70;;;;;;4945129;28;20242;-74
2022/06/05 12:39:26;;;;;;;1.67;1.30;;;12.10;66.60;;;;;;4952594;28;20196;-74
2022/06/05 12:41:58;;;;;;;2.20;1.10;;;12.10;66.60;;;;;;4951071;29;20186;-73
2022/06/05 12:44:31;;;;;;;1.90;1.10;;;12.00;66.60;;;;;;4945834;28;20222;-72
2022/06/05 12:47:15;;;;;;;1.63;1.00;;;12.00;66.80;;;;;;4953077;28;20226;-74
2022/06/05 12:49:48;;;;;;;1.17;1.00;;;12.00;66.60;;;;;;4947854;29;20241;-73
2022/06/05 12:52:39;;;;;;;1.37;1.20;;;12.00;66.50;;;;;;4944838;28;20258;-73
2022/06/05 12:55:21;;;;;;;1.97;1.10;;;11.90;67.00;;;;;;4949228;29;20657;-71
2022/06/05 12:57:57;;;;;;;1.10;1.00;;;11.90;66.90;;;;;;4948342;29;20213;-74
2022/06/05 13:00:46;;;;;;;1.43;1.00;;;11.90;66.70;;;;;;4950972;28;20187;-73
2022/06/05 13:03:52;;;;;;;1.07;1.03;;;11.90;66.80;;;;;;4938696;29;20246;-74
2022/06/05 13:07:01;;;;;;;3.10;1.00;;;11.80;67.00;;;;;;4946630;28;20643;-74
2022/06/05 13:09:35;;;;;;;2.07;1.10;;;11.80;67.20;;;;;;4950847;28;20203;-74
2022/06/05 13:12:09;;;;;;;2.60;1.00;;;11.80;67.50;;;;;;4953154;28;20276;-73
2022/06/05 13:15:03;;;;;;;1.00;0.90;;;11.70;67.40;;;;;;4955153;29;20634;-71
2022/06/05 13:18:07;;;;;;;1.07;1.03;;;11.80;67.30;;;;;;4954628;28;20179;-72
2022/06/05 13:20:37;;;;;;;1.03;1.00;;;11.80;67.40;;;;;;4955385;29;20229;-73
2022/06/05 13:23:38;;;;;;;0.90;0.90;;;11.70;67.70;;;;;;4955351;29;20649;-72
2022/06/05 13:26:16;;;;;;;1.27;1.10;;;11.80;67.20;;;;;;4955429;29;20586;-71
2022/06/05 13:29:17;;;;;;;1.00;1.00;;;11.80;67.10;;;;;;4952891;28;20292;-73
2022/06/05 13:32:21;;;;;;;1.00;0.90;;;11.90;67.00;;;;;;4944160;29;20233;-73
2022/06/05 13:34:48;;;;;;;1.00;1.00;;;11.90;66.80;;;;;;4955547;28;20172;-73
2022/06/05 13:38:02;;;;;;;1.80;1.00;;;11.80;67.30;;;;;;4955258;28;20256;-73
2022/06/05 13:40:40;;;;;;;1.10;1.00;;;11.90;67.00;;;;;;4946618;29;20658;-75
2022/06/05 13:43:21;;;;;;;1.00;1.00;;;11.90;67.10;;;;;;4954956;28;20548;-74
2022/06/05 13:46:21;;;;;;;1.63;1.00;;;11.90;67.20;;;;;;4954546;28;20172;-75
2022/06/05 13:48:57;;;;;;;1.23;1.00;;;11.90;67.00;;;;;;4944845;29;20313;-75
2022/06/05 13:51:28;;;;;;;1.33;1.10;;;12.00;66.80;;;;;;4954803;29;20187;-73
2022/06/05 13:54:24;;;;;;;0.90;0.90;;;12.00;66.60;;;;;;4954723;28;20597;-76
2022/06/05 13:56:58;;;;;;;2.10;1.00;;;12.00;66.90;;;;;;4952903;28;21044;-75